sensor_id;sensor_type;location;lat;lon;timestamp;P1;durP1;ratioP1;P2;durP2;ratioP2
25567;SDS011;13455;51.480;7.594;2023-08-07T00:00:33;7.13;;;5.20;;
25567;SDS011;13455;51.480;7.594;2023-08-07T00:02:58;5.03;;;4.37;;
25567;SDS011;13455;51.480;7.594;2023-08-07T00:05:24;5.25;;;4.13;;
25567;SDS011;13455;51.480;7.594;2023-08-07T00:07:49;8.00;;;3.92;;
25567;SDS011;13455;51.480;7.594;2023-08-07T00:10:15;4.18;;;3.10;;
25567;SDS011;13455;51.480;7.594;2023-08-07T00:12:41;4.37;;;3.40;;
25567;SDS011;13455;51.480;7.594;2023-08-07T00:15:08;4.90;;;3.50;;
25567;SDS011;13455;51.480;7.594;2023-08-07T00:17:34;4.65;;;3.10;;
25567;SDS011;13455;51.480;7.594;2023-08-07T00:20:00;4.57;;;2.80;;
25567;SDS011;13455;51.480;7.594;2023-08-07T00:22:25;4.30;;;2.70;;
25567;SDS011;13455;51.480;7.594;2023-08-07T00:24:51;4.30;;;2.33;;
25567;SDS011;13455;51.480;7.594;2023-08-07T00:27:16;4.20;;;2.20;;
25567;SDS011;13455;51.480;7.594;2023-08-07T00:29:42;3.67;;;2.40;;
25567;SDS011;13455;51.480;7.594;2023-08-07T00:32:08;3.77;;;2.30;;
25567;SDS011;13455;51.480;7.594;2023-08-07T00:34:33;4.80;;;2.20;;
25567;SDS011;13455;51.480;7.594;2023-08-07T00:36:59;2.80;;;1.83;;
25567;SDS011;13455;51.480;7.594;2023-08-07T00:39:25;2.50;;;1.83;;
25567;SDS011;13455;51.480;7.594;2023-08-07T00:41:50;2.83;;;1.90;;
25567;SDS011;13455;51.480;7.594;2023-08-07T00:44:16;2.30;;;1.90;;
25567;SDS011;13455;51.480;7.594;2023-08-07T00:46:41;4.57;;;1.70;;
25567;SDS011;13455;51.480;7.594;2023-08-07T00:49:08;2.53;;;1.63;;
25567;SDS011;13455;51.480;7.594;2023-08-07T00:51:36;3.00;;;1.43;;
25567;SDS011;13455;51.480;7.594;2023-08-07T00:54:03;2.15;;;1.40;;
25567;SDS011;13455;51.480;7.594;2023-08-07T00:56:30;1.58;;;1.42;;
25567;SDS011;13455;51.480;7.594;2023-08-07T00:58:57;3.50;;;1.40;;
25567;SDS011;13455;51.480;7.594;2023-08-07T01:01:25;1.75;;;1.05;;
25567;SDS011;13455;51.480;7.594;2023-08-07T01:03:52;1.63;;;1.20;;
25567;SDS011;13455;51.480;7.594;2023-08-07T01:06:17;2.00;;;1.10;;
25567;SDS011;13455;51.480;7.594;2023-08-07T01:08:43;2.08;;;1.20;;
25567;SDS011;13455;51.480;7.594;2023-08-07T01:17:13;3.08;;;1.27;;
25567;SDS011;13455;51.480;7.594;2023-08-07T01:19:41;4.55;;;1.40;;
25567;SDS011;13455;51.480;7.594;2023-08-07T01:24:33;3.77;;;1.20;;
25567;SDS011;13455;51.480;7.594;2023-08-07T01:27:07;3.90;;;1.30;;
25567;SDS011;13455;51.480;7.594;2023-08-07T01:29:48;3.92;;;1.58;;
25567;SDS011;13455;51.480;7.594;2023-08-07T01:35:40;6.97;;;2.25;;
25567;SDS011;13455;51.480;7.594;2023-08-07T01:38:08;6.20;;;2.10;;
25567;SDS011;13455;51.480;7.594;2023-08-07T01:40:35;7.55;;;1.95;;
25567;SDS011;13455;51.480;7.594;2023-08-07T01:43:03;4.47;;;1.90;;
25567;SDS011;13455;51.480;7.594;2023-08-07T01:45:29;6.33;;;1.83;;
25567;SDS011;13455;51.480;7.594;2023-08-07T01:47:55;5.67;;;1.97;;
25567;SDS011;13455;51.480;7.594;2023-08-07T01:50:21;4.18;;;1.63;;
25567;SDS011;13455;51.480;7.594;2023-08-07T01:52:48;4.35;;;1.70;;
25567;SDS011;13455;51.480;7.594;2023-08-07T01:55:14;3.80;;;1.58;;
25567;SDS011;13455;51.480;7.594;2023-08-07T01:57:40;3.72;;;1.45;;
25567;SDS011;13455;51.480;7.594;2023-08-07T02:00:07;4.78;;;1.50;;
25567;SDS011;13455;51.480;7.594;2023-08-07T02:02:33;3.47;;;1.55;;
25567;SDS011;13455;51.480;7.594;2023-08-07T02:04:59;5.30;;;1.45;;
25567;SDS011;13455;51.480;7.594;2023-08-07T02:07:25;4.53;;;1.60;;
25567;SDS011;13455;51.480;7.594;2023-08-07T02:09:50;3.70;;;1.60;;
25567;SDS011;13455;51.480;7.594;2023-08-07T02:12:16;4.23;;;1.90;;
25567;SDS011;13455;51.480;7.594;2023-08-07T02:14:41;4.40;;;1.60;;
25567;SDS011;13455;51.480;7.594;2023-08-07T02:17:07;3.30;;;1.83;;
25567;SDS011;13455;51.480;7.594;2023-08-07T02:19:33;5.05;;;1.77;;
25567;SDS011;13455;51.480;7.594;2023-08-07T02:21:59;4.75;;;2.10;;
25567;SDS011;13455;51.480;7.594;2023-08-07T02:24:24;5.90;;;2.20;;
25567;SDS011;13455;51.480;7.594;2023-08-07T02:26:50;4.90;;;2.40;;
25567;SDS011;13455;51.480;7.594;2023-08-07T02:29:15;4.37;;;2.70;;
25567;SDS011;13455;51.480;7.594;2023-08-07T02:31:41;4.93;;;2.97;;
25567;SDS011;13455;51.480;7.594;2023-08-07T02:34:07;6.65;;;3.00;;
25567;SDS011;13455;51.480;7.594;2023-08-07T02:36:32;5.93;;;2.60;;
25567;SDS011;13455;51.480;7.594;2023-08-07T02:38:58;4.33;;;2.30;;
25567;SDS011;13455;51.480;7.594;2023-08-07T02:41:23;5.00;;;2.40;;
25567;SDS011;13455;51.480;7.594;2023-08-07T02:43:49;5.70;;;2.40;;
25567;SDS011;13455;51.480;7.594;2023-08-07T02:46:14;3.83;;;2.40;;
25567;SDS011;13455;51.480;7.594;2023-08-07T02:48:40;4.30;;;2.30;;
25567;SDS011;13455;51.480;7.594;2023-08-07T02:51:06;4.20;;;2.50;;
25567;SDS011;13455;51.480;7.594;2023-08-07T02:53:31;5.75;;;2.20;;
25567;SDS011;13455;51.480;7.594;2023-08-07T02:55:57;5.83;;;2.30;;
25567;SDS011;13455;51.480;7.594;2023-08-07T02:58:22;5.93;;;2.63;;
25567;SDS011;13455;51.480;7.594;2023-08-07T03:00:48;6.20;;;2.50;;
25567;SDS011;13455;51.480;7.594;2023-08-07T03:03:13;3.90;;;2.45;;
25567;SDS011;13455;51.480;7.594;2023-08-07T03:05:43;3.30;;;2.07;;
25567;SDS011;13455;51.480;7.594;2023-08-07T03:08:16;5.15;;;2.50;;
25567;SDS011;13455;51.480;7.594;2023-08-07T03:10:42;3.50;;;2.10;;
25567;SDS011;13455;51.480;7.594;2023-08-07T03:13:14;4.18;;;2.05;;
25567;SDS011;13455;51.480;7.594;2023-08-07T03:15:40;3.45;;;1.88;;
25567;SDS011;13455;51.480;7.594;2023-08-07T03:18:05;3.40;;;2.00;;
25567;SDS011;13455;51.480;7.594;2023-08-07T03:20:31;5.10;;;2.10;;
25567;SDS011;13455;51.480;7.594;2023-08-07T03:22:56;4.63;;;2.00;;
25567;SDS011;13455;51.480;7.594;2023-08-07T03:25:22;3.15;;;2.00;;
25567;SDS011;13455;51.480;7.594;2023-08-07T03:27:47;4.57;;;1.80;;
25567;SDS011;13455;51.480;7.594;2023-08-07T03:30:13;3.67;;;1.90;;
25567;SDS011;13455;51.480;7.594;2023-08-07T03:32:39;3.28;;;1.85;;
25567;SDS011;13455;51.480;7.594;2023-08-07T03:35:06;4.38;;;1.80;;
25567;SDS011;13455;51.480;7.594;2023-08-07T03:37:32;3.80;;;1.70;;
25567;SDS011;13455;51.480;7.594;2023-08-07T03:39:58;3.58;;;1.80;;
25567;SDS011;13455;51.480;7.594;2023-08-07T03:42:23;3.17;;;1.60;;
25567;SDS011;13455;51.480;7.594;2023-08-07T03:44:49;3.97;;;1.87;;
25567;SDS011;13455;51.480;7.594;2023-08-07T03:47:14;5.05;;;1.70;;
25567;SDS011;13455;51.480;7.594;2023-08-07T03:49:40;3.25;;;1.55;;
25567;SDS011;13455;51.480;7.594;2023-08-07T03:52:06;3.60;;;1.37;;
25567;SDS011;13455;51.480;7.594;2023-08-07T03:54:31;3.43;;;1.30;;
25567;SDS011;13455;51.480;7.594;2023-08-07T03:56:57;3.27;;;1.20;;
25567;SDS011;13455;51.480;7.594;2023-08-07T03:59:23;2.27;;;1.20;;
25567;SDS011;13455;51.480;7.594;2023-08-07T04:01:48;2.65;;;1.23;;
25567;SDS011;13455;51.480;7.594;2023-08-07T04:04:14;4.27;;;1.30;;
25567;SDS011;13455;51.480;7.594;2023-08-07T04:06:39;2.33;;;1.27;;
25567;SDS011;13455;51.480;7.594;2023-08-07T04:09:05;4.53;;;1.40;;
25567;SDS011;13455;51.480;7.594;2023-08-07T04:11:31;4.00;;;1.50;;
25567;SDS011;13455;51.480;7.594;2023-08-07T04:13:58;4.13;;;1.70;;
25567;SDS011;13455;51.480;7.594;2023-08-07T04:16:24;5.33;;;1.90;;
25567;SDS011;13455;51.480;7.594;2023-08-07T04:18:50;6.87;;;1.70;;
25567;SDS011;13455;51.480;7.594;2023-08-07T04:21:16;4.43;;;1.85;;
25567;SDS011;13455;51.480;7.594;2023-08-07T04:23:41;5.47;;;1.80;;
25567;SDS011;13455;51.480;7.594;2023-08-07T04:26:07;5.80;;;2.20;;
25567;SDS011;13455;51.480;7.594;2023-08-07T04:28:33;6.70;;;2.42;;
25567;SDS011;13455;51.480;7.594;2023-08-07T04:30:58;6.07;;;2.30;;
25567;SDS011;13455;51.480;7.594;2023-08-07T04:33:24;7.13;;;2.50;;
25567;SDS011;13455;51.480;7.594;2023-08-07T04:35:49;7.30;;;2.83;;
25567;SDS011;13455;51.480;7.594;2023-08-07T04:38:16;6.07;;;2.90;;
25567;SDS011;13455;51.480;7.594;2023-08-07T04:40:45;9.80;;;3.35;;
25567;SDS011;13455;51.480;7.594;2023-08-07T04:43:12;9.38;;;3.15;;
25567;SDS011;13455;51.480;7.594;2023-08-07T04:45:41;7.37;;;3.70;;
25567;SDS011;13455;51.480;7.594;2023-08-07T04:48:07;8.17;;;3.60;;
25567;SDS011;13455;51.480;7.594;2023-08-07T04:50:33;9.32;;;3.90;;
25567;SDS011;13455;51.480;7.594;2023-08-07T04:52:59;8.53;;;3.97;;
25567;SDS011;13455;51.480;7.594;2023-08-07T04:55:25;6.53;;;3.85;;
25567;SDS011;13455;51.480;7.594;2023-08-07T04:57:50;10.40;;;4.13;;
25567;SDS011;13455;51.480;7.594;2023-08-07T05:00:19;10.75;;;4.25;;
25567;SDS011;13455;51.480;7.594;2023-08-07T05:02:46;8.82;;;4.30;;
25567;SDS011;13455;51.480;7.594;2023-08-07T05:05:13;9.52;;;4.68;;
25567;SDS011;13455;51.480;7.594;2023-08-07T05:07:39;10.27;;;4.80;;
25567;SDS011;13455;51.480;7.594;2023-08-07T05:10:05;9.23;;;5.00;;
25567;SDS011;13455;51.480;7.594;2023-08-07T05:12:31;9.07;;;4.90;;
25567;SDS011;13455;51.480;7.594;2023-08-07T05:14:57;10.53;;;5.80;;
25567;SDS011;13455;51.480;7.594;2023-08-07T05:17:23;10.45;;;5.68;;
25567;SDS011;13455;51.480;7.594;2023-08-07T05:19:48;14.02;;;6.10;;
25567;SDS011;13455;51.480;7.594;2023-08-07T05:22:14;15.33;;;6.60;;
25567;SDS011;13455;51.480;7.594;2023-08-07T05:24:40;12.85;;;6.22;;
25567;SDS011;13455;51.480;7.594;2023-08-07T05:27:08;12.23;;;6.20;;
25567;SDS011;13455;51.480;7.594;2023-08-07T05:29:34;11.38;;;6.43;;
25567;SDS011;13455;51.480;7.594;2023-08-07T05:32:08;12.18;;;6.47;;
25567;SDS011;13455;51.480;7.594;2023-08-07T05:34:37;12.65;;;6.30;;
25567;SDS011;13455;51.480;7.594;2023-08-07T05:37:03;13.00;;;5.60;;
25567;SDS011;13455;51.480;7.594;2023-08-07T05:39:28;9.82;;;5.60;;
25567;SDS011;13455;51.480;7.594;2023-08-07T05:41:54;9.93;;;5.50;;
25567;SDS011;13455;51.480;7.594;2023-08-07T05:44:22;10.90;;;6.10;;
25567;SDS011;13455;51.480;7.594;2023-08-07T05:46:51;11.57;;;5.95;;
25567;SDS011;13455;51.480;7.594;2023-08-07T05:49:17;13.35;;;6.60;;
25567;SDS011;13455;51.480;7.594;2023-08-07T05:51:42;10.57;;;6.60;;
25567;SDS011;13455;51.480;7.594;2023-08-07T05:54:08;12.35;;;6.72;;
25567;SDS011;13455;51.480;7.594;2023-08-07T05:56:34;12.40;;;7.47;;
25567;SDS011;13455;51.480;7.594;2023-08-07T05:59:00;12.77;;;7.65;;
25567;SDS011;13455;51.480;7.594;2023-08-07T06:01:26;11.03;;;7.00;;
25567;SDS011;13455;51.480;7.594;2023-08-07T06:03:55;11.23;;;7.05;;
25567;SDS011;13455;51.480;7.594;2023-08-07T06:06:21;10.63;;;6.75;;
25567;SDS011;13455;51.480;7.594;2023-08-07T06:08:48;9.18;;;5.80;;
25567;SDS011;13455;51.480;7.594;2023-08-07T06:11:13;8.47;;;5.60;;
25567;SDS011;13455;51.480;7.594;2023-08-07T06:13:40;8.43;;;4.90;;
25567;SDS011;13455;51.480;7.594;2023-08-07T06:16:05;7.93;;;5.00;;
25567;SDS011;13455;51.480;7.594;2023-08-07T06:18:31;9.02;;;4.93;;
25567;SDS011;13455;51.480;7.594;2023-08-07T06:20:57;9.63;;;5.07;;
25567;SDS011;13455;51.480;7.594;2023-08-07T06:23:22;7.30;;;5.10;;
25567;SDS011;13455;51.480;7.594;2023-08-07T06:25:48;10.60;;;4.60;;
25567;SDS011;13455;51.480;7.594;2023-08-07T06:28:14;6.70;;;4.67;;
25567;SDS011;13455;51.480;7.594;2023-08-07T06:30:39;6.20;;;4.30;;
25567;SDS011;13455;51.480;7.594;2023-08-07T06:33:05;6.25;;;4.07;;
25567;SDS011;13455;51.480;7.594;2023-08-07T06:35:30;5.23;;;3.80;;
25567;SDS011;13455;51.480;7.594;2023-08-07T06:37:56;5.03;;;3.90;;
25567;SDS011;13455;51.480;7.594;2023-08-07T06:40:21;6.90;;;4.10;;
25567;SDS011;13455;51.480;7.594;2023-08-07T06:42:47;5.47;;;3.85;;
25567;SDS011;13455;51.480;7.594;2023-08-07T06:45:13;6.63;;;3.60;;
25567;SDS011;13455;51.480;7.594;2023-08-07T06:47:38;5.13;;;3.80;;
25567;SDS011;13455;51.480;7.594;2023-08-07T06:50:04;7.03;;;4.28;;
25567;SDS011;13455;51.480;7.594;2023-08-07T06:52:30;6.90;;;4.05;;
25567;SDS011;13455;51.480;7.594;2023-08-07T06:54:55;10.00;;;5.20;;
25567;SDS011;13455;51.480;7.594;2023-08-07T06:57:21;8.70;;;5.22;;
25567;SDS011;13455;51.480;7.594;2023-08-07T06:59:47;6.93;;;5.20;;
25567;SDS011;13455;51.480;7.594;2023-08-07T07:02:12;10.93;;;5.50;;
25567;SDS011;13455;51.480;7.594;2023-08-07T07:04:38;9.90;;;5.33;;
25567;SDS011;13455;51.480;7.594;2023-08-07T07:07:04;8.82;;;5.53;;
25567;SDS011;13455;51.480;7.594;2023-08-07T07:09:29;10.18;;;5.35;;
25567;SDS011;13455;51.480;7.594;2023-08-07T07:11:55;10.03;;;5.37;;
25567;SDS011;13455;51.480;7.594;2023-08-07T07:14:21;7.82;;;5.13;;
25567;SDS011;13455;51.480;7.594;2023-08-07T07:16:47;8.10;;;5.10;;
25567;SDS011;13455;51.480;7.594;2023-08-07T07:19:13;9.10;;;5.03;;
25567;SDS011;13455;51.480;7.594;2023-08-07T07:21:38;8.55;;;4.57;;
25567;SDS011;13455;51.480;7.594;2023-08-07T07:24:04;6.75;;;4.40;;
25567;SDS011;13455;51.480;7.594;2023-08-07T07:26:31;7.15;;;4.22;;
25567;SDS011;13455;51.480;7.594;2023-08-07T07:28:57;9.43;;;4.43;;
25567;SDS011;13455;51.480;7.594;2023-08-07T07:31:22;6.73;;;4.40;;
25567;SDS011;13455;51.480;7.594;2023-08-07T07:33:48;6.30;;;4.20;;
25567;SDS011;13455;51.480;7.594;2023-08-07T07:36:17;7.82;;;4.10;;
25567;SDS011;13455;51.480;7.594;2023-08-07T07:38:45;7.28;;;4.40;;
25567;SDS011;13455;51.480;7.594;2023-08-07T07:41:14;7.80;;;4.10;;
25567;SDS011;13455;51.480;7.594;2023-08-07T07:43:41;5.07;;;3.27;;
25567;SDS011;13455;51.480;7.594;2023-08-07T07:46:06;6.10;;;3.03;;
25567;SDS011;13455;51.480;7.594;2023-08-07T07:48:32;5.47;;;3.00;;
25567;SDS011;13455;51.480;7.594;2023-08-07T07:51:01;4.77;;;2.60;;
25567;SDS011;13455;51.480;7.594;2023-08-07T07:53:28;4.32;;;2.42;;
25567;SDS011;13455;51.480;7.594;2023-08-07T07:55:53;4.40;;;2.33;;
25567;SDS011;13455;51.480;7.594;2023-08-07T07:58:19;3.97;;;1.80;;
25567;SDS011;13455;51.480;7.594;2023-08-07T08:00:45;3.70;;;1.90;;
25567;SDS011;13455;51.480;7.594;2023-08-07T08:03:11;3.87;;;2.03;;
25567;SDS011;13455;51.480;7.594;2023-08-07T08:05:40;2.75;;;1.70;;
25567;SDS011;13455;51.480;7.594;2023-08-07T08:08:06;2.95;;;1.80;;
25567;SDS011;13455;51.480;7.594;2023-08-07T08:10:32;2.97;;;1.88;;
25567;SDS011;13455;51.480;7.594;2023-08-07T08:12:59;4.32;;;1.80;;
25567;SDS011;13455;51.480;7.594;2023-08-07T08:15:24;3.13;;;1.92;;
25567;SDS011;13455;51.480;7.594;2023-08-07T08:17:50;4.07;;;2.00;;
25567;SDS011;13455;51.480;7.594;2023-08-07T08:20:16;3.00;;;1.93;;
25567;SDS011;13455;51.480;7.594;2023-08-07T08:22:43;4.28;;;2.10;;
25567;SDS011;13455;51.480;7.594;2023-08-07T08:25:09;3.47;;;2.20;;
25567;SDS011;13455;51.480;7.594;2023-08-07T08:27:36;3.92;;;2.30;;
25567;SDS011;13455;51.480;7.594;2023-08-07T08:30:02;3.95;;;2.28;;
25567;SDS011;13455;51.480;7.594;2023-08-07T08:32:28;5.30;;;2.30;;
25567;SDS011;13455;51.480;7.594;2023-08-07T08:34:54;4.67;;;2.53;;
25567;SDS011;13455;51.480;7.594;2023-08-07T08:37:20;5.63;;;2.42;;
25567;SDS011;13455;51.480;7.594;2023-08-07T08:39:46;5.53;;;3.00;;
25567;SDS011;13455;51.480;7.594;2023-08-07T08:42:12;6.00;;;2.63;;
25567;SDS011;13455;51.480;7.594;2023-08-07T08:44:44;7.80;;;2.58;;
25567;SDS011;13455;51.480;7.594;2023-08-07T08:47:16;6.22;;;2.58;;
25567;SDS011;13455;51.480;7.594;2023-08-07T08:49:46;6.07;;;2.60;;
25567;SDS011;13455;51.480;7.594;2023-08-07T08:52:13;6.20;;;2.33;;
25567;SDS011;13455;51.480;7.594;2023-08-07T08:54:40;3.97;;;2.20;;
25567;SDS011;13455;51.480;7.594;2023-08-07T08:57:06;6.85;;;2.33;;
25567;SDS011;13455;51.480;7.594;2023-08-07T08:59:33;5.68;;;2.00;;
25567;SDS011;13455;51.480;7.594;2023-08-07T09:01:59;5.28;;;1.88;;
25567;SDS011;13455;51.480;7.594;2023-08-07T09:04:24;5.95;;;1.70;;
25567;SDS011;13455;51.480;7.594;2023-08-07T09:06:50;6.43;;;1.92;;
25567;SDS011;13455;51.480;7.594;2023-08-07T09:09:16;4.50;;;1.90;;
25567;SDS011;13455;51.480;7.594;2023-08-07T09:11:46;6.80;;;2.10;;
25567;SDS011;13455;51.480;7.594;2023-08-07T09:14:15;7.07;;;1.90;;
25567;SDS011;13455;51.480;7.594;2023-08-07T09:16:43;7.72;;;2.28;;
25567;SDS011;13455;51.480;7.594;2023-08-07T09:19:11;5.40;;;2.00;;
25567;SDS011;13455;51.480;7.594;2023-08-07T09:21:36;5.75;;;1.77;;
25567;SDS011;13455;51.480;7.594;2023-08-07T09:24:02;6.97;;;2.00;;
25567;SDS011;13455;51.480;7.594;2023-08-07T09:26:28;5.40;;;1.90;;
25567;SDS011;13455;51.480;7.594;2023-08-07T09:28:54;6.90;;;2.10;;
25567;SDS011;13455;51.480;7.594;2023-08-07T09:31:20;8.95;;;2.30;;
25567;SDS011;13455;51.480;7.594;2023-08-07T09:33:47;6.07;;;2.15;;
25567;SDS011;13455;51.480;7.594;2023-08-07T09:36:16;8.38;;;2.38;;
25567;SDS011;13455;51.480;7.594;2023-08-07T09:38:43;6.57;;;2.30;;
25567;SDS011;13455;51.480;7.594;2023-08-07T09:41:08;11.18;;;2.63;;
25567;SDS011;13455;51.480;7.594;2023-08-07T09:43:34;8.80;;;3.00;;
25567;SDS011;13455;51.480;7.594;2023-08-07T09:46:02;8.97;;;2.80;;
25567;SDS011;13455;51.480;7.594;2023-08-07T09:48:31;8.43;;;2.90;;
25567;SDS011;13455;51.480;7.594;2023-08-07T09:51:02;10.50;;;3.10;;
25567;SDS011;13455;51.480;7.594;2023-08-07T09:53:29;10.20;;;3.00;;
25567;SDS011;13455;51.480;7.594;2023-08-07T09:55:55;10.20;;;3.15;;
25567;SDS011;13455;51.480;7.594;2023-08-07T09:58:21;10.80;;;3.30;;
25567;SDS011;13455;51.480;7.594;2023-08-07T10:00:48;10.25;;;3.25;;
25567;SDS011;13455;51.480;7.594;2023-08-07T10:03:14;8.13;;;3.00;;
25567;SDS011;13455;51.480;7.594;2023-08-07T10:05:40;9.48;;;3.00;;
25567;SDS011;13455;51.480;7.594;2023-08-07T10:08:07;9.00;;;2.80;;
25567;SDS011;13455;51.480;7.594;2023-08-07T10:10:33;9.35;;;2.75;;
25567;SDS011;13455;51.480;7.594;2023-08-07T10:13:01;10.97;;;2.97;;
25567;SDS011;13455;51.480;7.594;2023-08-07T10:15:28;10.13;;;2.67;;
25567;SDS011;13455;51.480;7.594;2023-08-07T10:17:56;10.10;;;2.75;;
25567;SDS011;13455;51.480;7.594;2023-08-07T10:20:21;9.45;;;2.60;;
25567;SDS011;13455;51.480;7.594;2023-08-07T10:22:49;10.05;;;2.75;;
25567;SDS011;13455;51.480;7.594;2023-08-07T10:25:16;10.40;;;2.83;;
25567;SDS011;13455;51.480;7.594;2023-08-07T10:27:47;9.40;;;2.90;;
25567;SDS011;13455;51.480;7.594;2023-08-07T10:30:16;10.10;;;2.60;;
25567;SDS011;13455;51.480;7.594;2023-08-07T10:32:45;8.60;;;2.55;;
25567;SDS011;13455;51.480;7.594;2023-08-07T10:35:23;14.07;;;3.13;;
25567;SDS011;13455;51.480;7.594;2023-08-07T10:38:04;8.63;;;2.90;;
25567;SDS011;13455;51.480;7.594;2023-08-07T10:40:32;10.13;;;2.72;;
25567;SDS011;13455;51.480;7.594;2023-08-07T10:42:59;7.83;;;2.50;;
25567;SDS011;13455;51.480;7.594;2023-08-07T10:45:30;6.57;;;2.40;;
25567;SDS011;13455;51.480;7.594;2023-08-07T10:48:06;7.30;;;2.17;;
25567;SDS011;13455;51.480;7.594;2023-08-07T10:50:33;8.15;;;2.45;;
25567;SDS011;13455;51.480;7.594;2023-08-07T10:53:01;6.75;;;2.47;;
25567;SDS011;13455;51.480;7.594;2023-08-07T10:55:30;9.48;;;2.65;;
25567;SDS011;13455;51.480;7.594;2023-08-07T10:58:20;8.63;;;2.63;;
25567;SDS011;13455;51.480;7.594;2023-08-07T11:00:50;9.95;;;3.08;;
25567;SDS011;13455;51.480;7.594;2023-08-07T11:03:25;9.30;;;2.55;;
25567;SDS011;13455;51.480;7.594;2023-08-07T11:05:52;7.50;;;2.65;;
25567;SDS011;13455;51.480;7.594;2023-08-07T11:08:21;10.00;;;2.70;;
25567;SDS011;13455;51.480;7.594;2023-08-07T11:10:48;9.50;;;2.60;;
25567;SDS011;13455;51.480;7.594;2023-08-07T11:13:15;10.60;;;2.80;;
25567;SDS011;13455;51.480;7.594;2023-08-07T11:15:40;8.47;;;2.50;;
25567;SDS011;13455;51.480;7.594;2023-08-07T11:18:06;9.18;;;2.70;;
25567;SDS011;13455;51.480;7.594;2023-08-07T11:20:33;8.93;;;2.63;;
25567;SDS011;13455;51.480;7.594;2023-08-07T11:23:00;9.40;;;2.78;;
25567;SDS011;13455;51.480;7.594;2023-08-07T11:25:26;11.52;;;2.42;;
25567;SDS011;13455;51.480;7.594;2023-08-07T11:27:52;11.57;;;2.90;;
25567;SDS011;13455;51.480;7.594;2023-08-07T11:30:19;9.33;;;2.80;;
25567;SDS011;13455;51.480;7.594;2023-08-07T11:32:44;9.00;;;2.43;;
25567;SDS011;13455;51.480;7.594;2023-08-07T11:35:10;9.38;;;2.38;;
25567;SDS011;13455;51.480;7.594;2023-08-07T11:37:38;9.48;;;2.47;;
25567;SDS011;13455;51.480;7.594;2023-08-07T11:40:11;8.05;;;2.25;;
25567;SDS011;13455;51.480;7.594;2023-08-07T11:42:36;8.20;;;2.10;;
25567;SDS011;13455;51.480;7.594;2023-08-07T11:45:02;6.80;;;2.10;;
25567;SDS011;13455;51.480;7.594;2023-08-07T11:47:29;7.35;;;2.20;;
25567;SDS011;13455;51.480;7.594;2023-08-07T11:49:55;8.43;;;2.30;;
25567;SDS011;13455;51.480;7.594;2023-08-07T11:52:20;7.90;;;2.20;;
25567;SDS011;13455;51.480;7.594;2023-08-07T11:54:48;8.88;;;2.30;;
25567;SDS011;13455;51.480;7.594;2023-08-07T11:57:15;7.13;;;2.20;;
25567;SDS011;13455;51.480;7.594;2023-08-07T11:59:41;8.43;;;2.30;;
25567;SDS011;13455;51.480;7.594;2023-08-07T12:02:10;7.75;;;2.10;;
25567;SDS011;13455;51.480;7.594;2023-08-07T12:04:39;10.35;;;2.25;;
25567;SDS011;13455;51.480;7.594;2023-08-07T12:07:05;10.63;;;2.55;;
25567;SDS011;13455;51.480;7.594;2023-08-07T12:09:31;8.13;;;2.00;;
25567;SDS011;13455;51.480;7.594;2023-08-07T12:11:57;9.20;;;2.15;;
25567;SDS011;13455;51.480;7.594;2023-08-07T12:14:23;7.50;;;2.00;;
25567;SDS011;13455;51.480;7.594;2023-08-07T12:16:49;7.00;;;1.87;;
25567;SDS011;13455;51.480;7.594;2023-08-07T12:19:15;8.03;;;2.40;;
25567;SDS011;13455;51.480;7.594;2023-08-07T12:21:41;6.15;;;1.95;;
25567;SDS011;13455;51.480;7.594;2023-08-07T12:24:07;8.20;;;1.93;;
25567;SDS011;13455;51.480;7.594;2023-08-07T12:26:33;6.15;;;1.85;;
25567;SDS011;13455;51.480;7.594;2023-08-07T12:28:59;5.70;;;1.80;;
25567;SDS011;13455;51.480;7.594;2023-08-07T12:31:24;6.37;;;2.03;;
25567;SDS011;13455;51.480;7.594;2023-08-07T12:33:50;10.68;;;2.20;;
25567;SDS011;13455;51.480;7.594;2023-08-07T12:36:16;7.63;;;2.13;;
25567;SDS011;13455;51.480;7.594;2023-08-07T12:38:42;5.93;;;1.83;;
25567;SDS011;13455;51.480;7.594;2023-08-07T12:41:08;7.78;;;1.90;;
25567;SDS011;13455;51.480;7.594;2023-08-07T12:43:34;8.82;;;2.00;;
25567;SDS011;13455;51.480;7.594;2023-08-07T12:46:00;5.27;;;1.77;;
25567;SDS011;13455;51.480;7.594;2023-08-07T12:48:26;7.68;;;1.88;;
25567;SDS011;13455;51.480;7.594;2023-08-07T12:50:53;5.93;;;1.83;;
25567;SDS011;13455;51.480;7.594;2023-08-07T12:53:19;8.17;;;2.00;;
25567;SDS011;13455;51.480;7.594;2023-08-07T12:55:44;6.25;;;1.83;;
25567;SDS011;13455;51.480;7.594;2023-08-07T12:58:10;12.30;;;1.90;;
25567;SDS011;13455;51.480;7.594;2023-08-07T13:00:36;7.88;;;2.10;;
25567;SDS011;13455;51.480;7.594;2023-08-07T13:03:01;6.47;;;1.70;;
25567;SDS011;13455;51.480;7.594;2023-08-07T13:05:28;6.43;;;1.75;;
25567;SDS011;13455;51.480;7.594;2023-08-07T13:07:55;8.10;;;2.03;;
25567;SDS011;13455;51.480;7.594;2023-08-07T13:10:23;8.05;;;1.83;;
25567;SDS011;13455;51.480;7.594;2023-08-07T13:12:49;6.65;;;1.70;;
25567;SDS011;13455;51.480;7.594;2023-08-07T13:15:15;6.73;;;1.90;;
25567;SDS011;13455;51.480;7.594;2023-08-07T13:17:42;9.30;;;1.95;;
25567;SDS011;13455;51.480;7.594;2023-08-07T13:20:09;8.10;;;1.90;;
25567;SDS011;13455;51.480;7.594;2023-08-07T13:22:38;7.43;;;2.00;;
25567;SDS011;13455;51.480;7.594;2023-08-07T13:25:04;7.30;;;2.00;;
25567;SDS011;13455;51.480;7.594;2023-08-07T13:27:30;5.22;;;1.67;;
25567;SDS011;13455;51.480;7.594;2023-08-07T13:29:57;8.80;;;1.77;;
25567;SDS011;13455;51.480;7.594;2023-08-07T13:32:22;5.67;;;1.97;;
25567;SDS011;13455;51.480;7.594;2023-08-07T13:34:48;6.60;;;1.90;;
25567;SDS011;13455;51.480;7.594;2023-08-07T13:37:14;6.72;;;1.70;;
25567;SDS011;13455;51.480;7.594;2023-08-07T13:39:40;6.07;;;1.90;;
25567;SDS011;13455;51.480;7.594;2023-08-07T13:42:06;6.10;;;1.75;;
25567;SDS011;13455;51.480;7.594;2023-08-07T13:44:32;5.95;;;1.80;;
25567;SDS011;13455;51.480;7.594;2023-08-07T13:46:58;5.15;;;1.70;;
25567;SDS011;13455;51.480;7.594;2023-08-07T13:49:24;6.10;;;1.75;;
25567;SDS011;13455;51.480;7.594;2023-08-07T13:51:50;6.20;;;1.70;;
25567;SDS011;13455;51.480;7.594;2023-08-07T13:54:15;6.30;;;1.75;;
25567;SDS011;13455;51.480;7.594;2023-08-07T13:56:42;5.32;;;1.50;;
25567;SDS011;13455;51.480;7.594;2023-08-07T13:59:07;5.40;;;1.70;;
25567;SDS011;13455;51.480;7.594;2023-08-07T14:01:34;4.65;;;1.60;;
25567;SDS011;13455;51.480;7.594;2023-08-07T14:04:02;5.05;;;1.70;;
25567;SDS011;13455;51.480;7.594;2023-08-07T14:06:28;7.82;;;1.80;;
25567;SDS011;13455;51.480;7.594;2023-08-07T14:08:54;5.43;;;1.60;;
25567;SDS011;13455;51.480;7.594;2023-08-07T14:11:20;6.95;;;1.67;;
25567;SDS011;13455;51.480;7.594;2023-08-07T14:13:45;5.57;;;1.43;;
25567;SDS011;13455;51.480;7.594;2023-08-07T14:16:12;6.55;;;1.58;;
25567;SDS011;13455;51.480;7.594;2023-08-07T14:18:38;6.10;;;1.58;;
25567;SDS011;13455;51.480;7.594;2023-08-07T14:21:04;7.07;;;1.83;;
25567;SDS011;13455;51.480;7.594;2023-08-07T14:23:30;7.97;;;2.00;;
25567;SDS011;13455;51.480;7.594;2023-08-07T14:25:56;7.00;;;2.13;;
25567;SDS011;13455;51.480;7.594;2023-08-07T14:28:21;6.00;;;1.92;;
25567;SDS011;13455;51.480;7.594;2023-08-07T14:30:47;7.53;;;1.93;;
25567;SDS011;13455;51.480;7.594;2023-08-07T14:33:13;6.27;;;1.80;;
25567;SDS011;13455;51.480;7.594;2023-08-07T14:35:39;6.23;;;1.90;;
25567;SDS011;13455;51.480;7.594;2023-08-07T14:38:05;5.78;;;2.10;;
25567;SDS011;13455;51.480;7.594;2023-08-07T14:40:31;7.40;;;2.30;;
25567;SDS011;13455;51.480;7.594;2023-08-07T14:42:57;5.85;;;2.00;;
25567;SDS011;13455;51.480;7.594;2023-08-07T14:45:22;6.43;;;1.90;;
25567;SDS011;13455;51.480;7.594;2023-08-07T14:47:49;6.03;;;2.00;;
25567;SDS011;13455;51.480;7.594;2023-08-07T14:50:15;5.88;;;1.92;;
25567;SDS011;13455;51.480;7.594;2023-08-07T14:52:44;6.57;;;2.10;;